createdAt,value
2019-02-22T00:02:46.192Z,8.64
2019-02-22T00:07:50.346Z,8.68
2019-02-22T00:12:54.367Z,8.72
2019-02-22T00:17:58.378Z,8.64
2019-02-22T00:23:02.398Z,8.61
2019-02-22T00:28:06.430Z,8.59
2019-02-22T00:33:10.469Z,8.56
2019-02-22T00:38:14.511Z,8.55
2019-02-22T00:43:18.551Z,8.55
2019-02-22T00:48:22.571Z,8.46
2019-02-22T00:53:26.585Z,8.50
2019-02-22T00:58:36.057Z,8.47
2019-02-22T01:03:40.198Z,8.43
2019-02-22T01:08:44.197Z,8.41
2019-02-22T01:13:48.280Z,8.37
2019-02-22T01:18:52.326Z,8.46
2019-02-22T01:23:56.414Z,8.42
2019-02-22T01:29:00.429Z,8.38
2019-02-22T01:34:04.442Z,8.30
2019-02-22T01:39:08.473Z,8.27
2019-02-22T01:44:22.648Z,8.29
2019-02-22T01:49:26.669Z,8.25
2019-02-22T01:54:30.706Z,8.23
2019-02-22T01:59:34.716Z,8.24
2019-02-22T02:04:38.738Z,8.15
2019-02-22T02:09:42.746Z,8.21
2019-02-22T02:14:46.820Z,8.15
2019-02-22T02:19:50.847Z,8.15
2019-02-22T02:24:54.872Z,8.11
2019-02-22T02:29:58.890Z,8.14
2019-02-22T02:35:02.914Z,8.09
2019-02-22T02:40:07.466Z,8.08
2019-02-22T02:45:11.491Z,8.10
2019-02-22T02:50:17.385Z,8.11
2019-02-22T02:55:32.081Z,8.11
2019-02-22T03:00:36.093Z,8.10
2019-02-22T03:06:08.200Z,8.07
2019-02-22T03:11:20.683Z,8.02
2019-02-22T03:16:18.022Z,7.99
2019-02-22T03:21:22.022Z,8.02
2019-02-22T03:26:26.045Z,8.03
2019-02-22T03:31:30.114Z,7.98
2019-02-22T03:36:34.127Z,7.96
2019-02-22T03:41:38.144Z,7.73
2019-02-22T03:46:42.163Z,7.56
2019-02-22T03:51:46.173Z,7.53
2019-02-22T03:56:50.187Z,7.41
2019-02-22T04:01:54.192Z,7.39
2019-02-22T04:06:58.213Z,7.40
2019-02-22T04:12:02.213Z,7.42
2019-02-22T04:17:06.234Z,7.25
2019-02-22T04:22:10.254Z,7.19
2019-02-22T04:27:14.285Z,7.04
2019-02-22T04:32:18.304Z,6.81
2019-02-22T04:37:22.475Z,6.47
2019-02-22T04:42:26.524Z,6.28
2019-02-22T04:47:30.542Z,6.02
2019-02-22T04:52:34.542Z,5.79
2019-02-22T04:57:38.554Z,5.53
2019-02-22T05:02:42.600Z,5.34
2019-02-22T05:07:46.610Z,5.28
2019-02-22T05:12:50.608Z,5.16
2019-02-22T05:17:54.637Z,5.03
2019-02-22T05:23:03.855Z,4.92
2019-02-22T05:28:04.415Z,4.85
2019-02-22T05:33:08.450Z,4.78
2019-02-22T05:38:12.489Z,4.76
2019-02-22T05:43:16.564Z,4.65
2019-02-22T05:48:20.591Z,4.68
2019-02-22T05:53:24.624Z,4.61
2019-02-22T05:58:28.640Z,4.66
2019-02-22T06:03:32.644Z,4.70
2019-02-22T06:08:36.663Z,4.71
2019-02-22T06:13:40.681Z,4.71
2019-02-22T06:18:44.711Z,4.74
2019-02-22T06:23:49.046Z,4.76
2019-02-22T06:28:53.130Z,4.59
2019-02-22T06:33:57.142Z,4.38
2019-02-22T06:39:01.159Z,4.40
2019-02-22T06:44:05.163Z,4.41
2019-02-22T06:49:09.193Z,4.07
2019-02-22T06:54:13.205Z,4.23
2019-02-22T06:59:17.214Z,4.34
2019-02-22T07:04:21.235Z,3.97
2019-02-22T07:09:25.229Z,3.79
2019-02-22T07:14:29.548Z,3.67
2019-02-22T07:19:33.567Z,3.64
2019-02-22T07:24:37.680Z,3.50
2019-02-22T07:29:41.688Z,3.45
2019-02-22T07:34:45.775Z,3.29
2019-02-22T07:39:49.806Z,3.16
2019-02-22T07:44:53.825Z,2.78
2019-02-22T07:49:57.848Z,2.67
2019-02-22T07:55:01.890Z,2.87
2019-02-22T08:00:07.721Z,2.89
2019-02-22T08:05:11.833Z,2.87
2019-02-22T08:10:15.841Z,2.87
2019-02-22T08:15:19.899Z,2.92
2019-02-22T08:20:23.925Z,2.83
2019-02-22T08:25:27.954Z,3.09
2019-02-22T08:30:31.962Z,3.29
2019-02-22T08:35:35.986Z,3.54
2019-02-22T08:40:40.005Z,3.51
2019-02-22T08:45:44.066Z,3.60
2019-02-22T08:50:48.098Z,3.82
2019-02-22T08:55:52.149Z,3.73
2019-02-22T09:00:56.167Z,3.82
2019-02-22T09:06:00.193Z,3.84
2019-02-22T09:11:04.223Z,3.36
2019-02-22T09:16:08.224Z,3.48
2019-02-22T09:21:12.271Z,3.70
2019-02-22T09:26:16.300Z,3.85
2019-02-22T09:31:20.299Z,4.01
2019-02-22T09:36:24.312Z,3.99
2019-02-22T09:41:28.328Z,4.01
2019-02-22T09:46:32.359Z,3.91
2019-02-22T09:51:36.355Z,3.93
2019-02-22T09:56:40.451Z,3.85
2019-02-22T10:01:44.491Z,3.94
2019-02-22T10:06:48.499Z,4.65
2019-02-22T10:11:52.523Z,6.01
2019-02-22T10:16:56.532Z,6.29
2019-02-22T10:22:00.566Z,6.86
2019-02-22T10:27:04.747Z,7.18
2019-02-22T10:32:08.761Z,7.83
2019-02-22T10:37:12.820Z,8.64
2019-02-22T10:42:16.840Z,10.20
2019-02-22T10:47:20.877Z,10.78
2019-02-22T10:52:24.922Z,10.94
2019-02-22T10:57:28.933Z,11.13
2019-02-22T11:02:32.946Z,10.96
2019-02-22T11:07:37.366Z,11.31
2019-02-22T11:12:41.497Z,11.89
2019-02-22T11:17:45.945Z,11.44
2019-02-22T11:22:50.242Z,11.57
2019-02-22T11:27:54.332Z,12.09
2019-02-22T11:32:58.426Z,13.33
2019-02-22T11:38:02.455Z,13.93
2019-02-22T11:43:06.488Z,14.77
2019-02-22T11:48:10.498Z,14.76
2019-02-22T11:53:14.565Z,13.48
2019-02-22T11:58:18.667Z,14.31
2019-02-22T12:03:24.963Z,15.11
2019-02-22T12:08:28.556Z,14.63
2019-02-22T12:13:32.590Z,15.02
2019-02-22T12:18:37.301Z,14.71
2019-02-22T12:23:41.320Z,15.30
2019-02-22T12:28:45.333Z,14.79
2019-02-22T12:33:49.382Z,14.94
2019-02-22T12:38:53.410Z,16.15
2019-02-22T12:43:59.870Z,14.90
2019-02-22T12:49:03.168Z,15.08
2019-02-22T12:54:07.983Z,15.86
2019-02-22T12:59:12.012Z,15.38
2019-02-22T13:04:16.039Z,17.45
2019-02-22T13:09:20.078Z,18.56
2019-02-22T13:14:24.104Z,17.93
2019-02-22T13:19:28.142Z,15.23
2019-02-22T13:24:32.164Z,15.11
2019-02-22T13:29:36.185Z,15.82
2019-02-22T13:34:41.895Z,15.83
2019-02-22T13:39:45.885Z,14.49
2019-02-22T13:44:49.935Z,12.98
2019-02-22T13:49:54.023Z,10.55
2019-02-22T13:54:58.045Z,9.91
2019-02-22T14:00:02.071Z,9.18
2019-02-22T14:05:06.299Z,8.49
2019-02-22T14:10:10.337Z,7.84
2019-02-22T14:15:14.308Z,7.72
2019-02-22T14:20:18.384Z,7.76
2019-02-22T14:25:22.426Z,7.57
2019-02-22T14:30:26.613Z,7.40
2019-02-22T14:35:30.629Z,7.32
2019-02-22T14:40:35.551Z,7.03
2019-02-22T14:45:48.782Z,7.02
2019-02-22T14:50:45.381Z,6.99
2019-02-22T14:55:49.390Z,6.88
2019-02-22T15:00:53.446Z,6.46
2019-02-22T15:05:57.453Z,6.29
2019-02-22T15:11:01.480Z,5.86
2019-02-22T15:16:39.440Z,5.79
2019-02-22T15:21:43.480Z,5.77
2019-02-22T15:26:47.512Z,5.56
2019-02-22T15:31:51.524Z,5.50
2019-02-22T15:36:55.602Z,5.70
2019-02-22T15:41:59.624Z,5.60
2019-02-22T15:47:11.485Z,5.27
2019-02-22T15:52:10.369Z,5.10
2019-02-22T15:57:14.520Z,5.09
2019-02-22T16:02:18.522Z,5.19
2019-02-22T16:07:22.560Z,4.91
2019-02-22T16:12:26.604Z,4.73
2019-02-22T16:17:30.604Z,4.61
2019-02-22T16:22:34.635Z,4.51
2019-02-22T16:27:38.644Z,4.30
2019-02-22T16:32:42.667Z,4.31
2019-02-22T16:37:46.678Z,4.36
2019-02-22T16:42:50.681Z,4.33
2019-02-22T16:47:54.802Z,4.21
2019-02-22T16:52:58.813Z,4.14
2019-02-22T16:58:02.833Z,4.14
2019-02-22T17:03:06.873Z,4.14
2019-02-22T17:08:10.936Z,4.06
2019-02-22T17:13:15.036Z,3.97
2019-02-22T17:18:19.068Z,3.89
2019-02-22T17:23:23.090Z,3.71
2019-02-22T17:28:27.115Z,3.67
2019-02-22T17:33:31.260Z,3.67
2019-02-22T17:38:35.427Z,3.64
2019-02-22T17:43:39.427Z,3.63
2019-02-22T17:48:43.448Z,3.51
2019-02-22T17:53:47.494Z,3.41
2019-02-22T17:58:51.511Z,3.23
2019-02-22T18:03:55.546Z,3.13
2019-02-22T18:08:59.555Z,3.13
2019-02-22T18:14:03.591Z,3.05
2019-02-22T18:19:07.599Z,3.03
2019-02-22T18:24:11.626Z,3.00
2019-02-22T18:29:15.637Z,2.95
2019-02-22T18:34:19.659Z,2.81
2019-02-22T18:39:23.760Z,2.79
2019-02-22T18:44:27.776Z,2.79
2019-02-22T18:49:31.797Z,2.76
2019-02-22T18:54:35.812Z,2.68
2019-02-22T18:59:39.817Z,2.61
2019-02-22T19:04:43.960Z,2.48
2019-02-22T19:09:48.334Z,2.35
2019-02-22T19:14:52.679Z,2.33
2019-02-22T19:19:56.774Z,2.32
2019-02-22T19:25:01.124Z,2.29
2019-02-22T19:30:05.764Z,2.19
2019-02-22T19:35:09.830Z,2.22
2019-02-22T19:40:16.162Z,2.19
2019-02-22T19:45:20.311Z,2.14
2019-02-22T19:50:24.386Z,2.04
2019-02-22T19:55:28.493Z,2.02
2019-02-22T20:00:32.562Z,2.00
2019-02-22T20:05:36.609Z,2.02
2019-02-22T20:10:40.672Z,1.92
2019-02-22T20:15:44.761Z,1.82
2019-02-22T20:20:48.910Z,1.73
2019-02-22T20:25:53.197Z,1.64
2019-02-22T20:30:57.260Z,1.68
2019-02-22T20:36:01.320Z,1.63
2019-02-22T20:41:05.373Z,1.63
2019-02-22T20:46:09.529Z,1.54
2019-02-22T20:51:13.569Z,1.50
2019-02-22T20:56:17.623Z,1.43
2019-02-22T21:01:21.678Z,1.35
2019-02-22T21:06:25.716Z,1.24
2019-02-22T21:11:29.768Z,1.32
2019-02-22T21:16:33.815Z,1.33
2019-02-22T21:21:37.896Z,1.26
2019-02-22T21:26:41.926Z,1.19
2019-02-22T21:31:45.955Z,1.15
2019-02-22T21:36:50.003Z,1.06
2019-02-22T21:41:54.042Z,0.99
2019-02-22T21:46:58.067Z,0.88
2019-02-22T21:52:02.099Z,0.74
2019-02-22T21:57:06.108Z,0.77
2019-02-22T22:02:10.134Z,0.79
2019-02-22T22:07:14.192Z,0.63
2019-02-22T22:12:18.196Z,0.56
2019-02-22T22:17:22.219Z,0.55
2019-02-22T22:22:26.234Z,0.50
2019-02-22T22:27:30.262Z,0.44
2019-02-22T22:32:34.307Z,0.42
2019-02-22T22:37:38.315Z,0.48
2019-02-22T22:42:42.332Z,0.40
2019-02-22T22:47:46.349Z,0.38
2019-02-22T22:52:50.359Z,0.31
2019-02-22T22:57:54.372Z,0.32
2019-02-22T23:02:58.403Z,0.24
2019-02-22T23:08:02.431Z,0.26
2019-02-22T23:13:06.448Z,0.21
2019-02-22T23:18:10.513Z,0.13
2019-02-22T23:23:14.519Z,0.12
2019-02-22T23:28:18.528Z,0.07
2019-02-22T23:33:22.548Z,0.10
2019-02-22T23:38:28.128Z,0.15
2019-02-22T23:43:33.225Z,0.25
2019-02-22T23:48:37.258Z,0.15
2019-02-22T23:53:41.282Z,0.07
2019-02-22T23:58:45.287Z,0.17
